Aviation Digital Data Service (ADDS)

Output produced by METARs form (1811 UTC 14 August 2018)
found at http://www.aviationweather.gov/adds/metars/
 
KLAF 141720Z 1418/1518 23006KT P6SM SCT045 
     FM150800 VRB03KT P6SM VCSH SCT040 BKN250 
     FM151200 VRB03KT P6SM VCSH SCT040 BKN130 
     FM151600 18007KT P6SM VCSH OVC035
       
KLAL 141720Z 1418/1518 20006KT P6SM SCT035 BKN250 
     FM141900 21006KT P6SM VCTS SCT040CB SCT150 BKN250 
     TEMPO 1419/1422 VRB15G25KT 3SM TSRA BKN025CB 
     FM150000 VRB03KT P6SM SCT030 BKN150 
     FM150200 00000KT P6SM FEW025 BKN200 
     FM151400 14005KT P6SM FEW020 SCT150 BKN250
       
KLAN 141740Z 1418/1518 27008KT P6SM FEW035 
     FM150400 23004KT P6SM FEW200 
     FM151600 23009KT P6SM SCT200
       
KLAR 141745Z 1418/1518 16018KT P6SM SCT120 
     FM141900 10012KT P6SM VCTS SCT070CB BKN150 
     FM150230 16009KT P6SM SCT200 
     FM151600 28007KT P6SM SKC
       
KLAS 141733Z 1418/1524 VRB06KT P6SM FEW150 SCT250 
     FM141900 10009KT P6SM FEW150 
     FM142200 21010G16KT P6SM VCTS SCT150CB 
     FM150300 22010KT P6SM FEW150 
     FM151200 VRB05KT P6SM FEW150 
     FM151800 17007KT P6SM FEW150
       
KLAX 141742Z 1418/1524 24006KT P6SM SCT019 BKN180 
     FM142000 26012KT P6SM SKC 
     FM150600 VRB03KT P6SM OVC010 
     FM151600 26006KT P6SM SCT010 
     FM152000 26012KT P6SM SKC
       
KLBB 141735Z 1418/1518 19011KT P6SM SCT060
       
KLBE 141730Z 1418/1518 26007KT P6SM VCSH BKN025 
     FM142300 25005KT P6SM SCT250 
     FM150800 22004KT 4SM BR FEW250 
     FM151400 24006KT P6SM SCT250
       
KLBF 141739Z 1418/1518 01009KT P6SM SCT080 
     FM142300 09008KT P6SM SCT250 
     FM150400 VRB03KT P6SM FEW250 
     FM151600 16006KT P6SM BKN250
       
KLBL 141720Z 1418/1518 32007KT P6SM BKN014 
     FM142000 35008KT P6SM BKN030 
     FM150000 02008KT P6SM SCT250
       
KLBT 141739Z 1418/1518 22005KT P6SM SCT100 
     FM142000 21004KT P6SM SCT050
       
KLCK 141737Z 1418/1518 27008KT P6SM SCT060 
     FM150100 21003KT P6SM SCT250 
     FM151500 20009KT P6SM SCT250
       
KLCH 141739Z 1418/1518 20007KT P6SM SCT035 
     FM150100 VRB03KT P6SM FEW250
       
KLEB 141730Z 1418/1518 22006KT P6SM BKN050 
     TEMPO 1420/1424 2SM TSRA OVC010CB 
     FM150500 00000KT P6SM BKN250 
     FM150700 00000KT 6SM BR BKN008 
     FM151300 VRB03KT P6SM BKN015 
     FM151400 VRB04KT P6SM BKN250
       
KLEE 141740Z 1418/1518 19008KT P6SM VCTS SCT040CB SCT080 BKN250 
     TEMPO 1419/1422 3SM TSRA BKN035CB BKN060 
     FM150000 20004KT P6SM FEW040 SCT100 BKN250 
     FM151400 16004KT P6SM SCT025
       
KLEX 141722Z 1418/1518 26005KT P6SM SCT040 
     FM150000 VRB03KT P6SM BKN250 
     FM151400 20007KT P6SM VCSH BKN040
       
TAF KLFI 141710Z 1417/1523 23010G15KT 9999 FEW060 SCT120 QNH2990INS 
     BECMG 1422/1423 24006KT 9999 FEW040 QNH2991INS 
     BECMG 1505/1506 25006KT 9999 FEW030 BKN045 QNH2995INS 
     BECMG 1514/1515 27006KT 9999 FEW040 SCT120 QNH2999INS TX32/1517Z TN21/1508Z
       
KLFK 141745Z 1418/1518 19009KT P6SM SCT040 
     FM150000 16005KT P6SM FEW180 SCT250 
     FM151200 15004KT P6SM BKN015 BKN025 
     FM151600 20008KT P6SM FEW020 SCT030
       
KLFT 141739Z 1418/1518 VRB04KT P6SM SCT020 SCT040 
     TEMPO 1418/1421 BKN020 
     FM150100 VRB03KT P6SM FEW250
       
KLGA 141732Z 1418/1524 20010G17KT P6SM SHRA BKN035 
     TEMPO 1419/1423 3SM TSRA BKN025CB 
     FM150100 23012KT P6SM VCSH SCT040 BKN100 
     FM150600 28010KT P6SM SCT050 BKN250 
     FM151400 28008KT P6SM SCT050 SCT250 
     FM151900 25010KT P6SM SCT250
       
KLGB 141742Z 1418/1518 09005KT P6SM SKC 
     FM141900 19008KT P6SM SKC 
     FM142300 30010KT P6SM SKC 
     FM150400 VRB03KT P6SM SKC 
     FM150800 VRB03KT P6SM OVC010 
     FM151600 16005KT P6SM SCT010
       
KLGU 141739Z 1418/1518 VRB04KT P6SM FEW180 
     FM141900 33007KT P6SM FEW120 FEW180 
     FM150400 VRB04KT P6SM FEW180 
     FM151200 12006KT P6SM SCT150 
     FM151700 32006KT P6SM SCT120
       
KLIT 141735Z 1418/1518 23007KT P6SM VCSH SCT025 BKN040 OVC100 
     TEMPO 1418/1420 BKN025 
     FM150100 18005KT P6SM SCT040 BKN120 
     FM151000 VRB03KT 6SM BR BKN120 
     FM151300 22005KT P6SM BKN120 
     FM151500 22009G15KT P6SM BKN120
       
KLLQ 141735Z 1418/1518 26009KT P6SM SCT120 BKN250 
     FM150200 VRB04KT P6SM BKN120 
     FM151400 25008KT P6SM BKN120
       
KLMT 141721Z 1418/1518 VRB03KT 6SM FU SKC 
     FM142100 20005KT 5SM FU SKC 
     FM150100 28008KT 4SM FU SKC 
     FM150400 VRB04KT 4SM FU SKC
       
KLND 141722Z 1418/1518 34008KT P6SM FEW080 SCT150 
     FM150100 01011KT P6SM FEW040 
     FM150700 VRB05KT P6SM SKC
       
KLNK 141722Z 1418/1518 12006KT P6SM -SHRA OVC040 
     TEMPO 1418/1422 3SM -TSRA BKN015CB 
     FM150000 06006KT P6SM VCSH OVC060 
     FM151100 36005KT P6SM BKN060
       
KLNS 141742Z 1418/1518 27009KT P6SM VCSH SCT016 BKN050 
     FM150700 29004KT 5SM BR SKC 
     FM151500 30006KT P6SM SKC
       
KLOZ 141720Z 1418/1518 VRB04KT P6SM SCT200 
     FM150800 00000KT 3SM BR FEW250 
     FM151200 00000KT 1SM BR BKN250 
     FM151300 00000KT P6SM SCT250
       
KLRD 141735Z 1418/1518 16014KT P6SM FEW070 SCT250 
     FM142300 13017G25KT P6SM FEW090 SCT250 
     TEMPO 1423/1502 BKN090 
     FM150900 15012KT P6SM FEW250 
     FM151200 14010KT P6SM FEW020 SCT110 
     FM151500 16013KT P6SM FEW050 SCT250
       
TAF KLRF 141500Z 1415/1521 17006KT 9999 SCT010 BKN070 QNH3001INS 
     BECMG 1417/1418 22012KT 9999 SCT160 BKN170 QNH2996INS 
     BECMG 1423/1424 19009KT 9999 FEW060 SCT110 QNH2989INS TX33/1421Z TN22/1512Z
       
KLRU 141723Z 1418/1518 12008KT P6SM FEW100 SCT250 
     FM150600 27005KT P6SM BKN250 
     FM151200 21006KT P6SM FEW100 SCT250
       
KLSE 141720Z 1418/1518 18005KT P6SM BKN200 
     FM151100 VRB04KT P6SM BKN045
       
TAF AMD KLSF 141735Z 1417/1523 20006KT 9999 SCT040 QNH2999INS 
     TEMPO 1418/1424 VRB12G20KT 4800 -TSRA BKN040CB 
     BECMG 1500/1501 19006KT 9999 VCTS BKN040CB QNH2996INS 
     BECMG 1503/1504 19006KT 9999 NSW SCT040 QNH2998INS 
     BECMG 1508/1509 VRB06KT 4800 BR FEW010 QNH3002INS 
     TEMPO 1511/1513 1600 BR 
     BECMG 1514/1515 18006KT 9999 NSW SCT040 BKN090 QNH3000INS 
     TEMPO 1519/1523 VRB10G15KT 3200 -TSRA BKN040CB TX32/1421Z TN20/1511Z
       
TAF KLSV 141501Z 1415/1521 VRB06KT 9999 FEW150 QNH2982INS 
     BECMG 1420/1421 19012KT 9999 FEW150 QNH2973INS TS OMTNS SE 
     TEMPO 1422/1501 21012G18KT 
     BECMG 1502/1503 19009KT 9999 FEW150 QNH2974INS 
     BECMG 1505/1506 VRB06KT 9999 FEW200 QNH2977INS TX42/1423Z TN27/1512Z
       
TAF KLTS 141700Z 1417/1523 19012KT 9999 SCT020 QNH2982INS 
     BECMG 1423/1424 18009KT 9999 SCT060 SCT100 QNH2980INS 
     BECMG 1502/1503 17009KT 9000 -SHRA SCT040 BKN060 QNH2983INS 
     TEMPO 1503/1505 30015G25KT 9000 -TSRA BKN050CB OVC070 
     BECMG 1505/1506 19009KT 9999 NSW FEW040 QNH2985INS 
     BECMG 1508/1509 VRB06KT 9999 SCT050 QNH2988INS 
     BECMG 1517/1518 17009KT 9999 FEW100 QNH2984INS TX34/1421Z TN23/1512Z
       
TAF KLUF 141201Z 1412/1518 23009KT 9999 FEW100 QNH2979INS 
     BECMG 1417/1418 23012G18KT 9999 SCT150 QNH2970INS 
     TEMPO 1423/1502 23015G25KT 520009 
     BECMG 1502/1503 26009KT 9999 SCT100 QNH2971INS 
     BECMG 1508/1509 VRB06KT 9999 BKN100 QNH2983INS 
     BECMG 1516/1517 23009KT 9999 BKN100 QNH2993INS TX38/1422Z TN26/1412Z
       
KLVK 141720Z 1418/1518 28011KT P6SM FEW200 
     FM150400 27008KT P6SM SKC 
     FM151000 27004KT P6SM BKN010 
     FM151300 28004KT P6SM OVC010 
     FM151700 28008KT P6SM SCT010
       
KLVM 141722Z 1418/1518 VRB06KT P6SM FEW080 
     FM142000 30010KT P6SM VCTS FEW060CB SCT200 
     FM150300 27006KT P6SM FEW100 SCT200 
     FM150900 VRB05KT P6SM SKC
       
KLVS 141725Z 1418/1518 07006KT P6SM SKC 
     FM142100 14011KT P6SM VCTS SCT060CB BKN100 
     TEMPO 1421/1424 VRB20G30KT 
     FM150000 13011KT P6SM VCSH SCT060 BKN100 
     FM150900 05007KT P6SM SCT140 
     FM151600 18008KT P6SM FEW070 SCT150
       
KLWB 141733Z 1418/1518 28005KT P6SM VCSH SCT025 
     FM142100 VRB04KT P6SM SCT045 
     FM150700 00000KT 3SM BR SCT003 
     FM150900 00000KT 1/4SM FG BKN001 
     FM151300 00000KT 3SM BR SCT003 BKN009 
     FM151430 VRB03KT P6SM SCT050
       
KLWS 141739Z 1418/1518 VRB03KT 4SM HZ SKC 
     FM141900 33005KT 6SM HZ FU SCT050 SCT200 
     FM150300 VRB04KT 6SM HZ SCT200 
     FM151200 11002KT 6SM HZ SKC
       
KLWT 141740Z 1418/1518 VRB05KT P6SM SKC 
     FM142100 21005KT P6SM SCT060
       
KLYH 141733Z 1418/1518 24006KT P6SM FEW060 
     FM150100 VRB03KT P6SM FEW250